Springdale, AR (72764)

2:34 AM CDT on September 17, 2014 (GMT -0500)
Near Fayetteville Botanical Gardens | Change Station
CLOSE
Current Station
Personal Weather Station
Location: Springdale, AR
Elevation: 1326 ft
Nearby Weather Stations

Elev 1326 ft 36.16 °N, 94.12 °W | Updated 15 seconds ago

Mostly Cloudy
Mostly Cloudy
69.7 °F
Feels Like 69.7 °F
N
0.0
Wind Variable Wind from NNE
Gusts 0.0 mph

Today
High -- | Low -- °F
--% Chance of Precip.
Yesterday
High -- | Low -- °F
Precip. -- in
7:00 AM 7:20 PM
Last Quarter, 38% visible
Pressure 30.05 in
Visibility 8.0 miles
Clouds Clear
Dew Point 70 °F
Humidity 100%
Rainfall 0.00 in
Snow Depth Not available.
UV 0 out of 12
Pollen 9.90 out of 12
Air Quality Not available.
Flu Activity Not available.
METAR KFYV 170653Z AUTO 09003KT 8SM CLR 17/17 A3005

More Conditions Fewer Conditions

Pressure 30.05 in
Visibility 8.0 miles
Clouds Clear
Dew Point 70 °F
Humidity 100%
Rainfall 0.00 in
Snow Depth Not available.
UV 0 out of 12
Pollen 9.90 out of 12
Air Quality Not available.
Flu Activity Not available.
METAR KFYV 170653Z AUTO 09003KT 8SM CLR 17/17 A3005

More Conditions Fewer Conditions

10-Day Weather Forecast

Almanac

Astronomy

Sep. 17, 2014 Rise Set
Actual Time 7:00 AM CDT 7:20 PM CDT
Civil Twilight 6:34 AM CDT 7:46 PM CDT
Nautical Twilight 6:04 AM CDT 8:16 PM CDT
Astronomical Twilight 5:33 AM CDT 8:47 PM CDT
Moon 1:08 AM CDT 3:23 PM CDT
Length of Visible Light 13h 11m
Length of Day
12h 20m
Tomorrow will be 2m 16s shorter.
Last Quarter, 38% of the Moon is Illuminated
Today
Last Quarter
Sep 24
New
Oct 1
First Quarter
Oct 8
Full
Oct 15
Last Quarter

Today's Extremes

State Highs State Lows

Community

WunderPhotos

Upload Photos

1,753,976 photos uploaded!

Nearby

Snow Depth

Station Depth Elevation
No new snow has been reported.

Earthquake Activity

City Distance Mag. Time & Date
No recent earthquake activity has been reported nearby.
Minimum magnitude displayed is 2.5.

Coastal Water Temperatures

Place Temperature
No Stations Reporting

Nearby Weather Stations